KDVT

Phoenix Deer Valley Airport

Phoenix, Arizona, USA
METAR KDVT 232253Z 06004KT 10SM CLR 22/M13 A3009 RMK AO2 SLP178 T02171128
Observed Flight Rules
Jan-23 @ 22:53 UTC (42 minutes ago) Visual Flight Rules
Wind Visibility Clouds
60° at 4 knots 10 miles
  • Clear skies
Temperatures Readings
Current 22°C / 72°F
Dewpoint -13°C / 9°F
Humidity 8%
Altimeter 30.09" Hg
Pressure 1017.8 hPa
Elevation 443
METAR KDVT 232253Z 06004KT 10SM CLR 22/M13 A3009 RMK AO2 SLP178 T02171128
Observed Flight Rules
Jan-23 @ 22:53 UTC
(42 minutes ago)
VFR
Wind Visibility
60° at 4 knots 10 miles
Clouds
  • Clear skies
Temperature Dewpoint
22°C / 72°F -13°C / 9°F
Humidity Altimeter Pressure
8% 30.09" Hg 1017.8 hPa